Time;durP1;ratioP1;P1;durP2;ratioP2;P2;SDS_P1;SDS_P2;PMS_P1;PMS_P2;Temp;Humidity;BMP_temperature;BMP_pressure;BME280_temperature;BME280_humidity;BME280_pressure;Samples;Min_cycle;Max_cycle;Signal;HPM_P1;HPM_P2
2022/02/25 05:59:06;;;;;;;4.80;2.70;;;;;;;1.46;68.96;100130.91;5006875;28;105940;-76
2022/02/25 06:01:32;;;;;;;1.92;1.70;;;;;;;1.45;69.69;100134.50;5005993;28;106113;-76
2022/02/25 06:03:57;;;;;;;4.07;2.20;;;;;;;1.49;69.96;100144.66;5005649;28;105998;-76
2022/02/25 06:06:22;;;;;;;4.93;2.40;;;;;;;1.53;70.09;100150.50;5005019;28;115345;-75
2022/02/25 06:08:48;;;;;;;6.18;2.25;;;;;;;1.57;69.96;100159.84;5003886;28;117536;-74
2022/02/25 06:11:13;;;;;;;2.38;1.40;;;;;;;1.68;70.50;100162.53;5005589;28;106001;-73
2022/02/25 06:13:38;;;;;;;4.90;1.70;;;;;;;1.86;71.24;100165.56;5009153;28;106027;-73
2022/02/25 06:16:04;;;;;;;4.32;2.20;;;;;;;2.16;71.27;100166.00;5004172;28;120211;-73
2022/02/25 06:18:29;;;;;;;2.38;1.70;;;;;;;2.41;71.08;100167.59;5004426;28;106568;-73
2022/02/25 06:20:54;;;;;;;3.38;1.85;;;;;;;2.63;70.77;100169.41;5005549;28;106272;-73
2022/02/25 06:23:22;;;;;;;4.30;1.85;;;;;;;2.81;70.11;100182.06;5004515;28;109175;-72
2022/02/25 06:25:48;;;;;;;3.17;1.83;;;;;;;2.86;69.80;100179.94;5003047;28;107771;-73
2022/02/25 06:28:15;;;;;;;4.30;2.70;;;;;;;2.85;69.16;100179.06;5004170;28;106254;-72
2022/02/25 06:30:40;;;;;;;4.85;3.35;;;;;;;2.81;69.05;100172.38;5005161;28;105952;-73
2022/02/25 06:33:06;;;;;;;3.33;1.80;;;;;;;2.76;68.69;100187.72;5003646;28;106259;-73
2022/02/25 06:35:31;;;;;;;4.78;2.08;;;;;;;2.73;68.64;100189.72;5001692;28;107106;-76
2022/02/25 06:37:57;;;;;;;2.75;1.70;;;;;;;2.72;68.51;100196.78;5002083;28;106207;-74
2022/02/25 06:40:22;;;;;;;3.22;2.00;;;;;;;2.69;68.14;100195.25;5002940;28;106079;-72
2022/02/25 06:42:48;;;;;;;5.43;1.90;;;;;;;2.70;68.49;100202.16;5002452;28;106279;-73
2022/02/25 06:45:15;;;;;;;3.65;1.65;;;;;;;2.68;68.13;100201.44;5002045;28;106567;-73
2022/02/25 06:47:41;;;;;;;10.80;1.70;;;;;;;2.69;68.35;100212.78;5002315;28;105995;-74
2022/02/25 06:50:08;;;;;;;2.97;1.55;;;;;;;2.82;68.13;100210.91;5003122;28;106652;-75
2022/02/25 06:52:34;;;;;;;4.00;2.40;;;;;;;2.92;68.37;100218.91;5003934;28;107590;-74
2022/02/25 06:54:59;;;;;;;4.22;1.67;;;;;;;3.02;67.81;100222.50;5003366;28;106016;-75
2022/02/25 06:57:25;;;;;;;3.35;1.58;;;;;;;3.11;67.67;100228.81;5003772;28;105818;-76
2022/02/25 06:59:50;;;;;;;4.13;1.85;;;;;;;3.23;67.61;100224.38;5004719;28;106106;-77
2022/02/25 07:02:15;;;;;;;4.22;1.58;;;;;;;3.42;67.53;100229.03;5003803;28;111670;-71
2022/02/25 07:04:40;;;;;;;5.03;1.90;;;;;;;3.57;67.39;100242.75;5003846;28;111881;-73
2022/02/25 07:07:06;;;;;;;4.45;1.90;;;;;;;3.70;67.38;100242.59;5000817;28;106190;-72
2022/02/25 07:09:31;;;;;;;3.40;1.48;;;;;;;3.83;67.00;100242.44;4996185;28;105890;-72
2022/02/25 07:11:57;;;;;;;4.45;1.60;;;;;;;4.04;66.97;100251.22;4989329;28;106271;-72
2022/02/25 07:14:22;;;;;;;4.80;1.33;;;;;;;4.18;66.29;100251.88;4990446;28;106087;-72
2022/02/25 07:16:47;;;;;;;4.53;1.42;;;;;;;4.31;66.36;100256.97;4990223;28;106032;-72
2022/02/25 07:19:13;;;;;;;4.05;1.60;;;;;;;4.46;66.25;100257.50;4991201;28;105906;-72
2022/02/25 07:21:38;;;;;;;6.30;1.73;;;;;;;4.57;65.49;100265.34;4990565;28;106195;-72
2022/02/25 07:24:04;;;;;;;3.88;1.60;;;;;;;4.66;65.21;100267.19;4989968;28;106840;-73
2022/02/25 07:26:30;;;;;;;3.03;1.70;;;;;;;4.65;64.42;100265.53;4990123;28;105925;-75
2022/02/25 07:28:55;;;;;;;1.80;1.00;;;;;;;4.70;64.28;100268.63;4990522;28;105926;-74
2022/02/25 07:31:21;;;;;;;4.05;1.83;;;;;;;4.87;63.89;100274.25;4990038;28;106009;-74
2022/02/25 07:33:46;;;;;;;3.28;2.10;;;;;;;5.09;64.22;100276.69;4989731;28;106262;-72
2022/02/25 07:36:11;;;;;;;3.42;1.52;;;;;;;5.32;63.98;100275.69;4988076;28;106304;-74
2022/02/25 07:38:37;;;;;;;4.45;1.60;;;;;;;5.57;63.44;100292.88;4990557;28;105940;-75
2022/02/25 07:41:02;;;;;;;3.55;1.98;;;;;;;5.81;63.10;100294.28;4990463;28;106263;-79
2022/02/25 07:43:28;;;;;;;6.97;2.15;;;;;;;5.99;62.26;100282.13;4989884;28;106243;-75
2022/02/25 07:45:53;;;;;;;5.60;1.63;;;;;;;6.26;61.86;100288.50;4989780;28;105945;-74
2022/02/25 07:48:19;;;;;;;3.08;1.65;;;;;;;6.52;61.91;100291.44;4990428;28;106067;-74
2022/02/25 07:50:46;;;;;;;8.63;2.13;;;;;;;6.89;61.80;100301.25;4990359;28;105872;-76
2022/02/25 07:53:13;;;;;;;2.53;1.58;;;;;;;7.13;59.73;100293.78;4989852;28;105854;-79
2022/02/25 07:55:39;;;;;;;3.33;2.10;;;;;;;7.35;60.27;100295.22;4990048;28;105854;-75
2022/02/25 07:58:05;;;;;;;3.45;1.45;;;;;;;7.47;58.29;100301.16;4989858;28;107266;-75
2022/02/25 08:00:31;;;;;;;4.38;1.73;;;;;;;7.46;56.86;100318.88;4989876;28;106166;-74
2022/02/25 08:02:59;;;;;;;3.30;1.40;;;;;;;7.47;56.56;100307.28;4989627;28;106850;-73
2022/02/25 08:05:24;;;;;;;3.10;1.55;;;;;;;7.40;56.04;100314.19;4989231;28;106106;-73
2022/02/25 08:07:50;;;;;;;3.50;1.70;;;;;;;7.50;56.34;100319.41;4990362;28;106479;-75
2022/02/25 08:10:16;;;;;;;5.28;1.83;;;;;;;7.68;56.66;100322.97;4990285;28;106210;-75
2022/02/25 08:12:42;;;;;;;4.80;1.60;;;;;;;8.12;55.68;100330.22;4989427;28;106339;-74
2022/02/25 08:15:09;;;;;;;4.60;2.17;;;;;;;8.62;57.12;100342.13;4987628;28;107152;-73
2022/02/25 08:17:37;;;;;;;3.13;1.67;;;;;;;8.74;53.59;100324.16;4990514;28;106052;-74
2022/02/25 08:20:04;;;;;;;3.33;1.63;;;;;;;8.89;52.88;100337.69;4989274;28;106152;-74
2022/02/25 08:22:30;;;;;;;3.17;1.73;;;;;;;9.10;53.20;100343.50;4988762;28;105829;-73
2022/02/25 08:24:56;;;;;;;2.15;1.17;;;;;;;9.47;51.53;100345.00;4989225;28;106206;-75
2022/02/25 08:27:21;;;;;;;5.30;2.00;;;;;;;9.34;49.44;100339.28;4989664;28;105761;-74
2022/02/25 08:29:46;;;;;;;5.93;2.05;;;;;;;9.20;50.25;100339.88;4989440;28;106123;-75
2022/02/25 08:32:12;;;;;;;2.50;1.80;;;;;;;9.62;49.94;100331.09;4988956;28;105908;-75
2022/02/25 08:34:38;;;;;;;5.10;1.65;;;;;;;10.13;49.69;100345.22;4989222;28;105856;-73
2022/02/25 08:37:03;;;;;;;4.38;2.20;;;;;;;10.40;48.59;100343.28;4988345;28;106247;-75
2022/02/25 08:39:29;;;;;;;3.22;1.48;;;;;;;9.85;47.34;100343.81;4989073;28;106436;-73
2022/02/25 08:41:55;;;;;;;5.93;1.95;;;;;;;10.40;47.00;100345.97;4986975;28;106835;-73
2022/02/25 08:44:21;;;;;;;5.90;2.00;;;;;;;10.04;46.95;100356.84;4988249;28;106070;-73
2022/02/25 08:46:47;;;;;;;5.00;1.80;;;;;;;9.68;47.65;100367.69;4989173;28;106752;-75
2022/02/25 08:49:13;;;;;;;6.35;2.42;;;;;;;9.49;47.95;100361.63;4988859;28;106292;-74
2022/02/25 08:51:40;;;;;;;4.82;1.80;;;;;;;9.35;47.87;100362.22;4987429;28;106239;-74
2022/02/25 08:54:06;;;;;;;2.35;1.20;;;;;;;10.06;46.92;100362.00;4988031;28;105983;-73
2022/02/25 08:56:31;;;;;;;3.10;2.03;;;;;;;9.98;46.38;100365.47;4989584;28;105794;-73
2022/02/25 08:58:56;;;;;;;2.53;1.50;;;;;;;10.09;45.93;100367.81;4987990;28;107234;-74
2022/02/25 09:01:23;;;;;;;1.25;1.15;;;;;;;11.85;43.58;100364.66;4988577;28;105940;-76
2022/02/25 09:03:49;;;;;;;2.65;1.20;;;;;;;13.21;41.34;100364.16;4988417;28;106187;-74
2022/02/25 09:06:14;;;;;;;3.35;1.95;;;;;;;14.97;41.75;100374.84;4987980;28;106327;-73
2022/02/25 09:08:41;;;;;;;5.95;1.95;;;;;;;16.07;40.21;100379.59;4988910;28;106338;-71
2022/02/25 09:11:07;;;;;;;2.15;1.30;;;;;;;17.07;38.87;100373.53;4986981;28;105970;-71
2022/02/25 09:13:32;;;;;;;6.93;1.73;;;;;;;19.63;38.33;100390.72;4987928;28;106091;-74
2022/02/25 09:15:57;;;;;;;3.33;1.70;;;;;;;20.75;33.36;100394.84;4988667;28;106328;-75
2022/02/25 09:18:23;;;;;;;3.30;1.80;;;;;;;18.19;31.58;100384.19;4988694;28;106190;-72
2022/02/25 09:20:48;;;;;;;4.20;1.90;;;;;;;16.70;33.65;100389.22;4988617;28;106587;-72
2022/02/25 09:23:14;;;;;;;6.35;1.40;;;;;;;15.25;34.54;100394.66;4988360;28;106248;-73
2022/02/25 09:25:40;;;;;;;6.57;1.70;;;;;;;15.54;34.76;100402.47;4989152;28;106269;-71
2022/02/25 09:28:06;;;;;;;5.53;2.45;;;;;;;14.07;35.24;100401.16;4988538;28;106271;-73
2022/02/25 09:30:32;;;;;;;5.55;1.45;;;;;;;16.08;36.80;100408.13;4987477;28;107973;-73
2022/02/25 09:32:57;;;;;;;2.22;1.10;;;;;;;17.93;30.84;100402.16;4987945;28;106080;-72
2022/02/25 09:35:23;;;;;;;10.60;3.53;;;;;;;17.66;30.22;100403.22;4989165;28;106633;-71
2022/02/25 09:37:48;;;;;;;3.05;0.90;;;;;;;16.39;29.79;100391.47;4988318;28;106168;-72
2022/02/25 09:40:18;;;;;;;3.90;1.17;;;;;;;14.25;31.27;100418.66;4987979;28;106075;-72
2022/02/25 09:42:45;;;;;;;2.65;1.20;;;;;;;13.36;32.92;100413.19;4987588;28;105945;-73
2022/02/25 09:45:13;;;;;;;7.28;1.52;;;;;;;12.89;33.89;100421.44;4988744;28;106130;-72
2022/02/25 09:47:40;;;;;;;5.90;1.30;;;;;;;12.47;33.85;100427.09;4988597;28;105974;-72
2022/02/25 09:50:09;;;;;;;2.70;1.20;;;;;;;11.71;34.66;100432.09;4987869;28;106059;-72
2022/02/25 09:52:38;;;;;;;6.72;1.73;;;;;;;11.30;35.65;100427.72;4987760;28;105948;-73
2022/02/25 09:55:09;;;;;;;3.83;1.57;;;;;;;11.99;34.38;100429.03;4989037;28;106592;-72
2022/02/25 09:57:34;;;;;;;2.38;0.90;;;;;;;12.39;34.05;100423.66;4987317;28;108743;-73
2022/02/25 10:00:00;;;;;;;6.40;2.20;;;;;;;11.38;33.85;100437.50;4987810;28;106700;-73
2022/02/25 10:02:40;;;;;;;2.47;1.13;;;;;;;10.22;35.39;100422.44;4987290;28;105968;-74
2022/02/25 10:05:19;;;;;;;3.47;1.33;;;;;;;10.85;36.03;100437.03;4987409;28;105987;-71
2022/02/25 10:07:44;;;;;;;0.68;0.57;;;;;;;12.23;32.29;100451.28;4987463;28;106064;-72
2022/02/25 10:10:13;;;;;;;4.60;0.95;;;;;;;12.67;31.50;100432.81;4987233;28;105857;-72
2022/02/25 10:12:44;;;;;;;3.50;1.00;;;;;;;11.48;31.45;100443.50;4986729;28;105953;-73
2022/02/25 10:15:09;;;;;;;4.50;1.13;;;;;;;10.25;33.10;100435.41;4988233;28;105894;-73
2022/02/25 10:17:35;;;;;;;1.40;0.90;;;;;;;10.79;34.40;100435.88;4987283;28;106160;-73
2022/02/25 10:20:03;;;;;;;4.82;1.00;;;;;;;15.29;31.40;100434.31;4987229;28;106873;-72
2022/02/25 10:22:37;;;;;;;2.05;1.00;;;;;;;19.72;25.13;100439.88;4985890;28;106101;-72
2022/02/25 10:25:05;;;;;;;2.35;0.90;;;;;;;20.89;24.24;100452.31;4988344;28;105948;-73
2022/02/25 10:27:35;;;;;;;2.55;1.00;;;;;;;18.91;24.77;100431.69;4986995;28;106175;-72
2022/02/25 10:30:19;;;;;;;3.75;1.23;;;;;;;16.48;26.16;100443.19;4987324;28;106340;-73
2022/02/25 10:32:52;;;;;;;3.45;1.50;;;;;;;16.24;27.98;100440.00;4987224;28;105953;-72
2022/02/25 10:35:30;;;;;;;5.05;1.30;;;;;;;18.98;26.54;100434.34;4988108;28;105971;-72
2022/02/25 10:37:57;;;;;;;4.13;1.17;;;;;;;22.27;23.48;100412.25;4985635;28;106204;-73
2022/02/25 10:40:23;;;;;;;3.13;1.23;;;;;;;21.92;21.75;100427.56;4987078;28;105884;-74
2022/02/25 10:42:48;;;;;;;3.55;1.42;;;;;;;22.99;22.04;100427.94;4986714;28;105841;-73
2022/02/25 10:45:36;;;;;;;4.30;1.13;;;;;;;24.63;20.70;100423.00;4989928;28;106313;-74
2022/02/25 10:48:08;;;;;;;2.65;1.20;;;;;;;22.55;19.83;100435.84;4990481;28;106162;-74
2022/02/25 10:50:57;;;;;;;2.42;0.95;;;;;;;22.83;18.01;100417.88;4990242;28;106629;-73
2022/02/25 10:53:31;;;;;;;4.38;1.25;;;;;;;21.60;19.93;100428.00;4994521;28;106179;-72
2022/02/25 10:56:16;;;;;;;3.63;0.90;;;;;;;20.34;20.50;100428.09;5011008;28;106070;-73
2022/02/25 10:58:43;;;;;;;4.15;1.17;;;;;;;19.43;21.39;100440.34;5010420;28;106199;-71
2022/02/25 11:01:11;;;;;;;3.17;1.30;;;;;;;22.05;19.90;100423.78;5009973;28;105966;-73
2022/02/25 11:03:37;;;;;;;4.38;1.60;;;;;;;22.81;18.04;100439.03;5008728;28;106184;-71
2022/02/25 11:06:07;;;;;;;3.42;1.20;;;;;;;24.39;17.64;100429.81;5009277;28;105807;-73
2022/02/25 11:08:33;;;;;;;5.30;1.13;;;;;;;26.77;16.19;100433.63;5009853;28;106104;-73
2022/02/25 11:10:58;;;;;;;4.93;1.50;;;;;;;27.78;15.08;100434.88;5010060;28;106140;-73
2022/02/25 11:13:25;;;;;;;5.13;0.98;;;;;;;29.03;14.65;100429.19;5010065;28;106383;-72
2022/02/25 11:15:50;;;;;;;2.70;1.02;;;;;;;30.57;14.35;100422.16;5010903;28;105834;-74
2022/02/25 11:18:16;;;;;;;4.60;1.23;;;;;;;32.06;13.03;100422.13;5010314;28;105923;-74
2022/02/25 11:20:42;;;;;;;5.63;1.70;;;;;;;30.73;12.98;100426.28;5010802;28;106071;-76
2022/02/25 11:23:10;;;;;;;3.97;1.08;;;;;;;28.94;14.05;100408.97;5009554;28;105911;-77
2022/02/25 11:25:37;;;;;;;3.47;1.00;;;;;;;24.78;16.24;100416.03;5010660;28;106129;-77
2022/02/25 11:28:04;;;;;;;5.05;1.58;;;;;;;21.38;19.14;100402.53;5009284;28;106679;-73
2022/02/25 11:30:35;;;;;;;4.63;0.90;;;;;;;18.79;20.75;100428.81;5009403;28;107108;-75
2022/02/25 11:33:19;;;;;;;2.83;0.93;;;;;;;16.65;22.89;100440.97;5008407;28;109078;-74
2022/02/25 11:35:47;;;;;;;3.40;1.23;;;;;;;16.76;23.50;100436.84;5010430;28;106047;-74
2022/02/25 11:38:13;;;;;;;1.98;0.93;;;;;;;19.64;21.44;100432.88;5009709;28;106140;-74
2022/02/25 11:40:44;;;;;;;3.42;1.10;;;;;;;22.13;18.52;100411.72;5009591;28;106238;-75
2022/02/25 11:43:10;;;;;;;2.47;1.00;;;;;;;22.57;17.86;100401.16;5009459;28;106110;-76
2022/02/25 11:45:48;;;;;;;3.40;1.23;;;;;;;24.99;16.05;100426.00;5010455;28;106045;-75
2022/02/25 11:48:19;;;;;;;4.03;1.15;;;;;;;27.31;14.79;100407.63;5009360;28;106005;-75
2022/02/25 11:50:50;;;;;;;2.60;1.13;;;;;;;29.41;13.70;100414.00;5009469;28;107035;-76
2022/02/25 11:53:28;;;;;;;5.63;1.35;;;;;;;31.53;12.85;100424.28;5007377;28;107776;-75
2022/02/25 11:55:53;;;;;;;3.42;1.15;;;;;;;33.17;12.12;100426.38;5009978;28;106404;-78
2022/02/25 11:58:54;;;;;;;3.95;1.55;;;;;;;33.55;11.54;100414.88;5009073;28;105777;-75
2022/02/25 12:01:21;;;;;;;3.03;1.13;;;;;;;33.58;11.95;100419.75;4986700;28;106926;-74
2022/02/25 12:03:58;;;;;;;3.58;0.90;;;;;;;29.58;12.70;100430.84;5004592;28;106076;-76
2022/02/25 12:06:28;;;;;;;3.83;1.15;;;;;;;25.49;15.63;100415.75;5009753;28;106601;-75
2022/02/25 12:08:58;;;;;;;3.10;1.10;;;;;;;22.76;17.39;100434.34;5009375;28;107006;-73
2022/02/25 12:11:30;;;;;;;4.28;1.33;;;;;;;19.91;19.21;100435.31;5009212;28;105894;-73
2022/02/25 12:13:56;;;;;;;4.18;1.23;;;;;;;21.39;18.90;100424.00;5008702;28;106052;-74
2022/02/25 12:16:30;;;;;;;3.92;1.20;;;;;;;23.39;16.87;100436.16;5009932;28;106165;-75
2022/02/25 12:19:08;;;;;;;4.57;1.17;;;;;;;27.35;14.48;100418.81;5008645;28;106139;-74
2022/02/25 12:21:43;;;;;;;3.92;1.33;;;;;;;27.31;14.13;100418.56;5008549;28;105985;-77
2022/02/25 12:24:15;;;;;;;2.88;0.95;;;;;;;27.43;14.18;100418.25;5008092;28;106084;-76
2022/02/25 12:26:42;;;;;;;5.00;1.10;;;;;;;27.24;14.82;100431.69;5009681;28;105947;-74
2022/02/25 12:29:16;;;;;;;3.42;0.93;;;;;;;29.57;13.38;100429.19;5009123;28;106258;-75
2022/02/25 12:31:44;;;;;;;5.85;1.10;;;;;;;31.68;12.25;100434.19;5008648;28;105939;-77
2022/02/25 12:34:19;;;;;;;4.10;0.98;;;;;;;33.44;11.50;100424.59;5008619;28;105895;-77
2022/02/25 12:36:44;;;;;;;2.53;0.80;;;;;;;34.60;10.50;100431.63;5009640;28;105993;-79
2022/02/25 12:39:18;;;;;;;2.25;0.85;;;;;;;35.75;10.19;100430.91;5009101;28;106359;-78
2022/02/25 12:41:48;;;;;;;4.45;0.98;;;;;;;34.96;10.10;100440.69;5008853;28;106411;-81
2022/02/25 12:44:23;;;;;;;5.30;1.02;;;;;;;33.23;10.12;100436.13;5008274;28;105882;-78
2022/02/25 12:46:51;;;;;;;3.20;0.80;;;;;;;34.23;10.15;100444.94;5009760;28;106156;-79
2022/02/25 12:49:19;;;;;;;1.77;0.40;;;;;;;32.77;9.79;100424.38;5008848;28;106152;-77
2022/02/25 12:51:45;;;;;;;3.47;0.70;;;;;;;32.14;9.74;100440.69;5008252;28;105971;-76
2022/02/25 12:54:16;;;;;;;3.03;0.68;;;;;;;28.59;11.45;100443.75;5007864;28;106280;-75
2022/02/25 12:56:47;;;;;;;4.40;1.90;;;;;;;27.89;12.47;100435.66;5008622;28;106116;-75
2022/02/25 12:59:13;;;;;;;2.05;0.77;;;;;;;28.61;11.63;100433.34;5008735;28;106378;-75
2022/02/25 13:01:47;;;;;;;5.63;1.20;;;;;;;30.13;11.24;100426.88;5011456;28;106741;-83
2022/02/25 13:04:15;;;;;;;2.65;0.75;;;;;;;31.87;10.55;100431.31;5009396;28;106250;-76
2022/02/25 13:06:43;;;;;;;4.95;1.33;;;;;;;32.72;9.94;100428.09;5008514;28;105880;-73
2022/02/25 13:09:14;;;;;;;3.60;0.90;;;;;;;34.77;9.58;100424.44;5008365;28;106261;-73
2022/02/25 13:11:42;;;;;;;4.70;1.17;;;;;;;36.19;8.92;100432.63;5008641;28;106051;-72
2022/02/25 13:14:24;;;;;;;4.47;1.15;;;;;;;36.21;9.10;100431.13;5007498;28;107116;-74
2022/02/25 13:17:17;;;;;;;4.25;0.85;;;;;;;36.42;8.52;100422.81;5008492;28;106208;-73
2022/02/25 13:19:48;;;;;;;6.88;1.20;;;;;;;34.33;9.84;100438.31;5007086;28;106316;-75
2022/02/25 13:22:38;;;;;;;2.58;0.70;;;;;;;35.54;9.39;100430.91;5007734;28;105791;-74
2022/02/25 13:25:24;;;;;;;3.67;1.20;;;;;;;37.04;8.54;100425.78;4998813;28;107139;-76
2022/02/25 13:27:55;;;;;;;5.15;1.25;;;;;;;36.50;9.18;100431.38;5008522;28;105984;-73
2022/02/25 13:30:27;;;;;;;5.40;1.25;;;;;;;35.19;9.18;100433.78;5008040;28;106228;-74
2022/02/25 13:32:58;;;;;;;5.97;1.48;;;;;;;33.67;9.98;100428.06;5004362;28;106651;-75
2022/02/25 13:35:33;;;;;;;5.55;1.70;;;;;;;34.03;9.22;100433.34;5004177;28;106394;-72
2022/02/25 13:38:05;;;;;;;3.25;0.93;;;;;;;34.07;9.16;100437.09;5008407;28;106121;-74
2022/02/25 13:40:41;;;;;;;6.43;2.00;;;;;;;33.30;8.89;100422.75;5008305;28;106084;-74
2022/02/25 13:43:20;;;;;;;5.60;1.20;;;;;;;33.90;8.96;100429.59;5007739;28;106040;-73
2022/02/25 13:45:48;;;;;;;4.22;1.00;;;;;;;33.89;9.11;100414.16;5008049;28;105902;-74
2022/02/25 13:53:56;;;;;;;3.97;1.00;;;;;;;32.20;9.50;100405.59;5007989;28;106876;-72
2022/02/25 13:56:27;;;;;;;2.33;0.60;;;;;;;31.50;9.62;100422.16;5006399;28;106336;-74
2022/02/25 13:59:22;;;;;;;3.10;1.00;;;;;;;30.84;9.77;100415.94;5008100;28;106033;-72
2022/02/25 14:01:47;;;;;;;2.83;0.75;;;;;;;30.66;9.88;100417.56;5005918;28;106161;-71
2022/02/25 14:04:14;;;;;;;2.42;0.70;;;;;;;30.66;9.82;100415.66;5007010;28;105854;-72
2022/02/25 14:06:48;;;;;;;2.80;0.95;;;;;;;30.88;9.52;100411.47;5006829;28;106072;-71
2022/02/25 14:09:21;;;;;;;4.72;0.93;;;;;;;31.03;9.86;100397.44;5008033;28;106392;-70
2022/02/25 14:11:58;;;;;;;2.53;1.00;;;;;;;30.95;9.85;100403.63;5007348;28;106302;-71
2022/02/25 14:14:32;;;;;;;3.38;0.80;;;;;;;30.51;10.14;100407.63;5007487;28;105805;-71
2022/02/25 14:16:57;;;;;;;3.80;0.85;;;;;;;30.71;10.17;100401.00;5007073;28;105871;-70
2022/02/25 14:19:23;;;;;;;6.13;2.38;;;;;;;30.81;10.17;100398.09;5009424;28;106789;-71
2022/02/25 14:21:48;;;;;;;7.13;2.78;;;;;;;30.20;10.08;100394.34;5011059;28;105645;-73
2022/02/25 14:24:28;;;;;;;5.63;3.05;;;;;;;29.98;10.56;100404.00;5010355;28;105992;-71
2022/02/25 14:27:14;;;;;;;15.95;9.40;;;;;;;29.80;10.44;100399.25;5010421;28;106040;-71
2022/02/25 14:29:41;;;;;;;8.27;3.10;;;;;;;30.10;10.51;100400.00;5010732;28;105941;-72
2022/02/25 14:32:09;;;;;;;9.65;3.35;;;;;;;30.19;10.43;100396.28;5010294;28;106314;-70
2022/02/25 14:34:39;;;;;;;6.25;2.25;;;;;;;30.33;10.56;100401.84;5010815;28;105878;-73
2022/02/25 14:37:05;;;;;;;10.23;2.80;;;;;;;30.39;10.49;100406.16;5010540;28;106276;-73
2022/02/25 14:39:30;;;;;;;5.68;2.40;;;;;;;30.08;10.70;100402.22;5011101;28;106166;-73
2022/02/25 14:41:55;;;;;;;2.83;1.08;;;;;;;29.54;11.05;100413.31;5010393;28;106140;-71
2022/02/25 14:44:21;;;;;;;4.15;1.10;;;;;;;28.37;11.40;100419.53;5010040;28;105967;-71
2022/02/25 14:46:47;;;;;;;9.32;4.88;;;;;;;27.45;11.82;100413.34;5010230;28;106344;-72
2022/02/25 14:49:13;;;;;;;3.03;1.40;;;;;;;27.17;11.69;100403.81;5009264;28;106360;-71
2022/02/25 14:51:38;;;;;;;2.35;1.30;;;;;;;26.62;11.91;100415.28;5010661;28;105858;-72
2022/02/25 14:54:04;;;;;;;3.55;1.40;;;;;;;26.00;12.70;100419.78;5010312;28;107305;-72
2022/02/25 14:56:29;;;;;;;5.38;1.60;;;;;;;25.81;12.53;100419.44;5008739;28;105924;-72
2022/02/25 14:58:55;;;;;;;4.07;1.40;;;;;;;26.36;12.35;100422.63;5010583;28;106248;-71
2022/02/25 15:01:20;;;;;;;3.53;1.40;;;;;;;26.61;12.12;100434.69;5010857;28;106062;-73
2022/02/25 15:03:46;;;;;;;4.78;1.40;;;;;;;26.27;12.56;100430.53;5010185;28;106033;-71
2022/02/25 15:06:11;;;;;;;4.80;1.10;;;;;;;25.68;12.72;100429.75;5008073;28;106828;-72
2022/02/25 15:08:37;;;;;;;3.70;1.30;;;;;;;25.29;13.12;100443.66;5010634;28;105974;-71
2022/02/25 15:11:02;;;;;;;54.60;38.63;;;;;;;25.36;13.53;100442.63;5010039;28;106255;-72
2022/02/25 15:13:29;;;;;;;8.48;1.50;;;;;;;25.47;13.69;100447.09;5009986;28;105920;-73
2022/02/25 15:15:57;;;;;;;4.88;1.38;;;;;;;25.71;13.30;100450.19;5009491;28;106335;-73
2022/02/25 15:18:23;;;;;;;4.55;1.30;;;;;;;25.45;13.67;100446.50;5010867;28;105951;-74
2022/02/25 15:20:48;;;;;;;3.70;1.25;;;;;;;25.31;13.67;100436.03;5008578;28;106011;-75
2022/02/25 15:23:13;;;;;;;4.75;1.48;;;;;;;25.34;13.79;100440.19;5009977;28;106839;-75
2022/02/25 15:25:40;;;;;;;5.20;2.50;;;;;;;24.98;13.82;100440.72;5010001;28;105795;-74
2022/02/25 15:28:05;;;;;;;3.13;1.15;;;;;;;24.49;14.03;100446.22;5010171;28;105853;-76
2022/02/25 15:30:31;;;;;;;6.00;1.25;;;;;;;24.20;14.10;100443.75;5009525;28;106435;-75
2022/02/25 15:32:56;;;;;;;4.13;1.30;;;;;;;23.75;14.41;100442.91;5009320;28;106077;-72
2022/02/25 15:35:22;;;;;;;6.68;1.48;;;;;;;23.29;14.96;100447.69;5009608;28;106022;-71
2022/02/25 15:37:47;;;;;;;4.47;1.10;;;;;;;22.59;15.40;100441.63;5010348;28;106497;-72
2022/02/25 15:40:13;;;;;;;7.30;1.27;;;;;;;21.77;15.95;100438.94;5009487;28;106279;-72
2022/02/25 15:42:38;;;;;;;2.45;1.00;;;;;;;20.77;16.39;100449.56;5009488;28;106048;-75
2022/02/25 15:45:06;;;;;;;2.80;1.10;;;;;;;19.79;17.33;100446.84;5009782;28;105985;-72
2022/02/25 15:47:31;;;;;;;4.03;1.80;;;;;;;19.39;17.59;100441.03;5009735;28;106094;-72
2022/02/25 15:49:57;;;;;;;4.32;1.20;;;;;;;18.85;18.06;100444.16;5009710;28;105929;-71
2022/02/25 15:52:22;;;;;;;3.83;1.52;;;;;;;18.18;18.86;100449.94;5009496;28;106005;-72
2022/02/25 15:54:47;;;;;;;5.13;3.22;;;;;;;17.91;18.81;100452.72;4999856;28;105997;-73
2022/02/25 15:57:13;;;;;;;6.03;2.38;;;;;;;17.41;19.43;100452.38;4990403;28;106303;-73
2022/02/25 15:59:39;;;;;;;6.82;2.08;;;;;;;16.79;19.72;100455.25;4988330;28;106120;-73
2022/02/25 16:02:04;;;;;;;22.45;12.27;;;;;;;15.95;20.56;100457.28;4988268;28;106058;-74
2022/02/25 16:04:29;;;;;;;5.30;2.40;;;;;;;15.03;21.32;100454.53;4989235;28;106105;-73
2022/02/25 16:06:55;;;;;;;6.03;2.60;;;;;;;13.66;22.72;100464.06;4990177;28;106026;-73
2022/02/25 16:09:21;;;;;;;6.53;2.60;;;;;;;12.42;23.99;100466.03;4987473;28;106049;-73
2022/02/25 16:11:47;;;;;;;6.60;1.80;;;;;;;11.44;25.58;100468.84;4987196;28;106680;-74
2022/02/25 16:14:12;;;;;;;10.07;2.75;;;;;;;10.63;26.23;100475.81;4987055;28;106449;-73
2022/02/25 16:16:38;;;;;;;3.25;1.90;;;;;;;9.92;27.07;100467.25;4987675;28;105985;-73
2022/02/25 16:19:05;;;;;;;9.13;4.30;;;;;;;9.35;27.84;100476.56;4987057;28;107008;-73
2022/02/25 16:21:30;;;;;;;7.07;3.20;;;;;;;8.87;28.25;100478.66;4986551;28;106150;-74
2022/02/25 16:23:56;;;;;;;4.75;2.28;;;;;;;8.44;29.32;100478.34;4987915;28;106217;-74
2022/02/25 16:26:21;;;;;;;4.38;2.13;;;;;;;8.05;29.79;100486.53;4989581;28;106314;-73
2022/02/25 16:28:46;;;;;;;6.50;2.88;;;;;;;7.67;30.52;100488.34;4989063;28;106200;-74
2022/02/25 16:31:12;;;;;;;7.22;2.40;;;;;;;7.36;31.01;100493.84;4988798;28;106039;-73
2022/02/25 16:33:41;;;;;;;4.32;2.15;;;;;;;7.07;30.88;100494.72;4988906;28;106336;-73
2022/02/25 16:36:08;;;;;;;4.75;2.38;;;;;;;6.85;31.41;100500.28;4989604;28;106027;-74
2022/02/25 16:38:34;;;;;;;6.28;3.00;;;;;;;6.63;32.04;100501.38;4989528;28;106091;-75
2022/02/25 16:40:59;;;;;;;9.68;4.10;;;;;;;6.41;31.91;100504.13;4988726;28;106142;-74
2022/02/25 16:43:24;;;;;;;14.90;8.18;;;;;;;6.21;32.62;100505.03;4988318;28;106262;-73
2022/02/25 16:45:52;;;;;;;38.55;20.85;;;;;;;6.08;33.23;100508.75;4990247;28;106315;-74
2022/02/25 16:48:17;;;;;;;15.48;8.43;;;;;;;6.01;33.91;100507.59;4988645;28;106298;-74
2022/02/25 16:50:43;;;;;;;34.83;17.45;;;;;;;5.95;34.27;100508.09;4988948;28;106054;-73
2022/02/25 16:53:09;;;;;;;5.90;3.20;;;;;;;5.89;34.49;100509.47;4988425;28;105976;-73
2022/02/25 16:55:34;;;;;;;8.50;3.42;;;;;;;5.73;34.44;100520.50;4989475;28;106138;-73
2022/02/25 16:58:00;;;;;;;6.13;3.40;;;;;;;5.57;34.56;100525.44;4988340;28;106387;-74
2022/02/25 17:00:25;;;;;;;7.50;2.42;;;;;;;5.45;34.86;100526.47;4988702;28;106652;-74
2022/02/25 17:02:50;;;;;;;12.90;4.25;;;;;;;5.29;35.07;100526.91;4988613;28;106163;-75
2022/02/25 17:05:16;;;;;;;20.13;8.73;;;;;;;5.17;35.18;100534.06;4989644;28;106425;-77
2022/02/25 17:07:42;;;;;;;18.95;8.07;;;;;;;5.05;35.66;100536.72;4988326;28;106152;-72
2022/02/25 17:10:08;;;;;;;13.88;4.85;;;;;;;4.95;36.10;100534.94;4988616;28;106033;-74
2022/02/25 17:12:34;;;;;;;15.77;5.38;;;;;;;4.86;35.92;100531.28;4988246;28;106311;-74
2022/02/25 17:15:02;;;;;;;12.02;5.75;;;;;;;4.78;36.37;100538.97;4988758;28;105936;-74
2022/02/25 17:17:28;;;;;;;16.17;7.10;;;;;;;4.70;36.51;100537.81;4988346;28;105846;-75
2022/02/25 17:19:53;;;;;;;20.02;9.27;;;;;;;4.58;36.66;100541.44;4987733;28;107051;-75
2022/02/25 17:22:19;;;;;;;19.05;8.95;;;;;;;4.45;37.00;100544.19;4985894;28;107353;-72
2022/02/25 17:24:44;;;;;;;16.95;8.20;;;;;;;4.34;37.50;100546.84;4987562;28;105879;-74
2022/02/25 17:27:12;;;;;;;19.83;8.52;;;;;;;4.22;37.98;100553.91;4987806;28;105811;-73